sensor_id;sensor_type;location;lat;lon;timestamp;temperature;humidity
5200;DHT22;2619;47.868;11.892;2023-02-18T00:01:15;12.00;99.90
5200;DHT22;2619;47.868;11.892;2023-02-18T00:03:42;11.90;99.90
5200;DHT22;2619;47.868;11.892;2023-02-18T00:08:46;11.90;99.90
5200;DHT22;2619;47.868;11.892;2023-02-18T00:11:13;11.90;99.90
5200;DHT22;2619;47.868;11.892;2023-02-18T00:13:39;11.90;99.90
5200;DHT22;2619;47.868;11.892;2023-02-18T00:16:07;11.90;99.90
5200;DHT22;2619;47.868;11.892;2023-02-18T00:18:34;11.90;99.90
5200;DHT22;2619;47.868;11.892;2023-02-18T00:20:59;11.90;99.90
5200;DHT22;2619;47.868;11.892;2023-02-18T00:23:27;11.80;99.90
5200;DHT22;2619;47.868;11.892;2023-02-18T00:26:10;11.80;99.90
5200;DHT22;2619;47.868;11.892;2023-02-18T00:28:36;11.80;99.90
5200;DHT22;2619;47.868;11.892;2023-02-18T00:31:19;11.90;99.90
5200;DHT22;2619;47.868;11.892;2023-02-18T00:33:45;11.90;99.90
5200;DHT22;2619;47.868;11.892;2023-02-18T00:36:13;11.90;99.90
5200;DHT22;2619;47.868;11.892;2023-02-18T00:38:53;11.90;99.90
5200;DHT22;2619;47.868;11.892;2023-02-18T00:41:21;11.90;99.90
5200;DHT22;2619;47.868;11.892;2023-02-18T00:43:47;11.90;99.90
5200;DHT22;2619;47.868;11.892;2023-02-18T00:46:13;11.90;99.90
5200;DHT22;2619;47.868;11.892;2023-02-18T00:48:39;12.00;99.90
5200;DHT22;2619;47.868;11.892;2023-02-18T00:51:06;11.90;99.90
5200;DHT22;2619;47.868;11.892;2023-02-18T00:53:31;11.80;99.90
5200;DHT22;2619;47.868;11.892;2023-02-18T00:55:57;11.80;99.90
5200;DHT22;2619;47.868;11.892;2023-02-18T00:58:23;11.80;99.90
5200;DHT22;2619;47.868;11.892;2023-02-18T01:00:48;11.80;99.90
5200;DHT22;2619;47.868;11.892;2023-02-18T01:03:14;11.80;99.90
5200;DHT22;2619;47.868;11.892;2023-02-18T01:05:40;11.70;99.90
5200;DHT22;2619;47.868;11.892;2023-02-18T01:08:07;11.70;99.90
5200;DHT22;2619;47.868;11.892;2023-02-18T01:10:33;11.60;99.90
5200;DHT22;2619;47.868;11.892;2023-02-18T01:13:00;11.50;99.90
5200;DHT22;2619;47.868;11.892;2023-02-18T01:15:25;11.50;99.90
5200;DHT22;2619;47.868;11.892;2023-02-18T01:17:51;11.40;99.90
5200;DHT22;2619;47.868;11.892;2023-02-18T01:20:18;11.40;99.90
5200;DHT22;2619;47.868;11.892;2023-02-18T01:22:44;11.30;99.90
5200;DHT22;2619;47.868;11.892;2023-02-18T01:25:10;11.30;99.90
5200;DHT22;2619;47.868;11.892;2023-02-18T01:27:36;11.30;99.90
5200;DHT22;2619;47.868;11.892;2023-02-18T01:30:03;11.20;99.90
5200;DHT22;2619;47.868;11.892;2023-02-18T01:32:29;11.20;99.90
5200;DHT22;2619;47.868;11.892;2023-02-18T01:34:55;11.10;99.90
5200;DHT22;2619;47.868;11.892;2023-02-18T01:37:20;11.00;99.90
5200;DHT22;2619;47.868;11.892;2023-02-18T01:39:46;11.00;99.90
5200;DHT22;2619;47.868;11.892;2023-02-18T01:42:21;11.00;99.90
5200;DHT22;2619;47.868;11.892;2023-02-18T01:44:48;10.90;99.90
5200;DHT22;2619;47.868;11.892;2023-02-18T01:47:14;10.80;99.90
5200;DHT22;2619;47.868;11.892;2023-02-18T01:49:41;10.70;99.90
5200;DHT22;2619;47.868;11.892;2023-02-18T01:52:14;10.60;99.90
5200;DHT22;2619;47.868;11.892;2023-02-18T01:54:44;10.60;99.90
5200;DHT22;2619;47.868;11.892;2023-02-18T01:57:20;10.40;99.90
5200;DHT22;2619;47.868;11.892;2023-02-18T01:59:56;10.50;99.90
5200;DHT22;2619;47.868;11.892;2023-02-18T02:02:24;10.50;99.90
5200;DHT22;2619;47.868;11.892;2023-02-18T02:04:51;10.50;99.90
5200;DHT22;2619;47.868;11.892;2023-02-18T02:07:19;10.50;99.90
5200;DHT22;2619;47.868;11.892;2023-02-18T02:09:46;10.40;99.90
5200;DHT22;2619;47.868;11.892;2023-02-18T02:12:33;10.40;99.90
5200;DHT22;2619;47.868;11.892;2023-02-18T02:18:44;10.30;99.90
5200;DHT22;2619;47.868;11.892;2023-02-18T02:21:52;10.30;99.90
5200;DHT22;2619;47.868;11.892;2023-02-18T02:41:01;10.30;99.90
5200;DHT22;2619;47.868;11.892;2023-02-18T02:46:36;10.20;99.90
5200;DHT22;2619;47.868;11.892;2023-02-18T02:51:53;10.20;99.90
5200;DHT22;2619;47.868;11.892;2023-02-18T02:54:24;10.10;99.90
5200;DHT22;2619;47.868;11.892;2023-02-18T02:57:08;10.20;99.90
5200;DHT22;2619;47.868;11.892;2023-02-18T02:59:37;10.20;99.90
5200;DHT22;2619;47.868;11.892;2023-02-18T03:05:13;10.20;99.90
5200;DHT22;2619;47.868;11.892;2023-02-18T03:08:36;10.30;99.90
5200;DHT22;2619;47.868;11.892;2023-02-18T03:11:10;10.30;99.90
5200;DHT22;2619;47.868;11.892;2023-02-18T03:14:09;10.30;99.90
5200;DHT22;2619;47.868;11.892;2023-02-18T03:17:06;10.40;99.90
5200;DHT22;2619;47.868;11.892;2023-02-18T03:19:44;10.60;99.90
5200;DHT22;2619;47.868;11.892;2023-02-18T03:22:32;10.60;99.90
5200;DHT22;2619;47.868;11.892;2023-02-18T03:24:59;10.60;99.90
5200;DHT22;2619;47.868;11.892;2023-02-18T03:27:32;10.60;99.90
5200;DHT22;2619;47.868;11.892;2023-02-18T03:32:40;10.50;99.90
5200;DHT22;2619;47.868;11.892;2023-02-18T03:35:10;10.50;99.90
5200;DHT22;2619;47.868;11.892;2023-02-18T03:37:44;10.40;99.90
5200;DHT22;2619;47.868;11.892;2023-02-18T03:40:10;10.30;99.90
5200;DHT22;2619;47.868;11.892;2023-02-18T03:42:36;10.30;99.90
5200;DHT22;2619;47.868;11.892;2023-02-18T03:45:02;10.30;99.90
5200;DHT22;2619;47.868;11.892;2023-02-18T03:47:27;10.30;99.90
5200;DHT22;2619;47.868;11.892;2023-02-18T03:49:53;10.30;99.90
5200;DHT22;2619;47.868;11.892;2023-02-18T03:52:18;10.30;99.90
5200;DHT22;2619;47.868;11.892;2023-02-18T03:54:44;10.30;99.90
5200;DHT22;2619;47.868;11.892;2023-02-18T03:57:10;10.20;99.90
5200;DHT22;2619;47.868;11.892;2023-02-18T03:59:35;10.10;99.90
5200;DHT22;2619;47.868;11.892;2023-02-18T04:02:01;10.00;99.90
5200;DHT22;2619;47.868;11.892;2023-02-18T04:04:27;10.00;99.90
5200;DHT22;2619;47.868;11.892;2023-02-18T04:06:53;9.90;99.90
5200;DHT22;2619;47.868;11.892;2023-02-18T04:09:18;9.80;99.90
5200;DHT22;2619;47.868;11.892;2023-02-18T04:11:44;9.90;99.90
5200;DHT22;2619;47.868;11.892;2023-02-18T04:14:12;9.80;99.90
5200;DHT22;2619;47.868;11.892;2023-02-18T04:16:38;9.70;99.90
5200;DHT22;2619;47.868;11.892;2023-02-18T04:19:04;9.60;99.90
5200;DHT22;2619;47.868;11.892;2023-02-18T04:21:29;9.50;99.90
5200;DHT22;2619;47.868;11.892;2023-02-18T04:23:55;9.30;99.90
5200;DHT22;2619;47.868;11.892;2023-02-18T04:26:20;9.20;99.90
5200;DHT22;2619;47.868;11.892;2023-02-18T04:28:47;9.30;99.90
5200;DHT22;2619;47.868;11.892;2023-02-18T04:31:12;9.30;99.90
5200;DHT22;2619;47.868;11.892;2023-02-18T04:33:38;9.20;99.90
5200;DHT22;2619;47.868;11.892;2023-02-18T04:36:03;9.20;99.90
5200;DHT22;2619;47.868;11.892;2023-02-18T04:38:29;9.20;99.90
5200;DHT22;2619;47.868;11.892;2023-02-18T04:40:55;9.20;99.90
5200;DHT22;2619;47.868;11.892;2023-02-18T04:43:20;9.40;99.90
5200;DHT22;2619;47.868;11.892;2023-02-18T04:45:46;9.50;99.90
5200;DHT22;2619;47.868;11.892;2023-02-18T04:48:11;9.50;99.90
5200;DHT22;2619;47.868;11.892;2023-02-18T04:50:37;9.60;99.90
5200;DHT22;2619;47.868;11.892;2023-02-18T04:53:02;9.70;99.90
5200;DHT22;2619;47.868;11.892;2023-02-18T04:55:28;9.70;99.90
5200;DHT22;2619;47.868;11.892;2023-02-18T04:57:54;9.60;99.90
5200;DHT22;2619;47.868;11.892;2023-02-18T05:00:19;9.70;99.90
5200;DHT22;2619;47.868;11.892;2023-02-18T05:02:46;9.80;99.90
5200;DHT22;2619;47.868;11.892;2023-02-18T05:05:12;9.90;99.90
5200;DHT22;2619;47.868;11.892;2023-02-18T05:07:38;9.90;99.90
5200;DHT22;2619;47.868;11.892;2023-02-18T05:10:05;9.80;99.90
5200;DHT22;2619;47.868;11.892;2023-02-18T05:12:30;9.90;99.90
5200;DHT22;2619;47.868;11.892;2023-02-18T05:14:56;9.90;99.90
5200;DHT22;2619;47.868;11.892;2023-02-18T05:17:21;10.00;99.90
5200;DHT22;2619;47.868;11.892;2023-02-18T05:19:47;9.90;99.90
5200;DHT22;2619;47.868;11.892;2023-02-18T05:22:12;9.90;99.90
5200;DHT22;2619;47.868;11.892;2023-02-18T05:24:38;9.90;99.90
5200;DHT22;2619;47.868;11.892;2023-02-18T05:27:04;9.90;99.90
5200;DHT22;2619;47.868;11.892;2023-02-18T05:29:29;10.00;99.90
5200;DHT22;2619;47.868;11.892;2023-02-18T05:31:55;10.00;99.90
5200;DHT22;2619;47.868;11.892;2023-02-18T05:34:20;10.00;99.90
5200;DHT22;2619;47.868;11.892;2023-02-18T05:36:46;10.10;99.90
5200;DHT22;2619;47.868;11.892;2023-02-18T05:39:11;10.10;99.90
5200;DHT22;2619;47.868;11.892;2023-02-18T05:41:37;10.20;99.90
5200;DHT22;2619;47.868;11.892;2023-02-18T05:44:02;10.20;99.90
5200;DHT22;2619;47.868;11.892;2023-02-18T05:46:46;10.30;99.90
5200;DHT22;2619;47.868;11.892;2023-02-18T05:49:12;10.30;99.90
5200;DHT22;2619;47.868;11.892;2023-02-18T05:51:38;10.30;99.90
5200;DHT22;2619;47.868;11.892;2023-02-18T05:54:04;10.30;99.90
5200;DHT22;2619;47.868;11.892;2023-02-18T05:56:29;10.40;99.90
5200;DHT22;2619;47.868;11.892;2023-02-18T05:58:55;10.40;99.90
5200;DHT22;2619;47.868;11.892;2023-02-18T06:01:20;10.40;99.90
5200;DHT22;2619;47.868;11.892;2023-02-18T06:03:46;10.50;99.90
5200;DHT22;2619;47.868;11.892;2023-02-18T06:06:12;10.50;99.90
5200;DHT22;2619;47.868;11.892;2023-02-18T06:08:37;10.50;99.90
5200;DHT22;2619;47.868;11.892;2023-02-18T06:11:03;10.50;99.90
5200;DHT22;2619;47.868;11.892;2023-02-18T06:13:29;10.50;99.90
5200;DHT22;2619;47.868;11.892;2023-02-18T06:15:54;10.50;99.90
5200;DHT22;2619;47.868;11.892;2023-02-18T06:18:20;10.50;99.90
5200;DHT22;2619;47.868;11.892;2023-02-18T06:20:47;10.50;99.90
5200;DHT22;2619;47.868;11.892;2023-02-18T06:23:13;10.50;99.90
5200;DHT22;2619;47.868;11.892;2023-02-18T06:25:39;10.50;99.90
5200;DHT22;2619;47.868;11.892;2023-02-18T06:28:05;10.50;99.90
5200;DHT22;2619;47.868;11.892;2023-02-18T06:30:30;10.50;99.90
5200;DHT22;2619;47.868;11.892;2023-02-18T06:32:56;10.50;99.90
5200;DHT22;2619;47.868;11.892;2023-02-18T06:35:21;10.50;99.90
5200;DHT22;2619;47.868;11.892;2023-02-18T06:37:47;10.60;99.90
5200;DHT22;2619;47.868;11.892;2023-02-18T06:40:13;10.60;99.90
5200;DHT22;2619;47.868;11.892;2023-02-18T06:42:38;10.60;99.90
5200;DHT22;2619;47.868;11.892;2023-02-18T06:45:04;10.60;99.90
5200;DHT22;2619;47.868;11.892;2023-02-18T06:47:31;10.60;99.90
5200;DHT22;2619;47.868;11.892;2023-02-18T06:49:57;10.70;99.90
5200;DHT22;2619;47.868;11.892;2023-02-18T06:52:23;10.70;99.90
5200;DHT22;2619;47.868;11.892;2023-02-18T06:54:48;10.70;99.90
5200;DHT22;2619;47.868;11.892;2023-02-18T06:57:14;10.70;99.90
5200;DHT22;2619;47.868;11.892;2023-02-18T06:59:39;10.70;99.90
5200;DHT22;2619;47.868;11.892;2023-02-18T07:02:05;10.70;99.90
5200;DHT22;2619;47.868;11.892;2023-02-18T07:04:31;10.80;99.90
5200;DHT22;2619;47.868;11.892;2023-02-18T07:06:56;10.80;99.90
5200;DHT22;2619;47.868;11.892;2023-02-18T07:09:22;10.90;99.90
5200;DHT22;2619;47.868;11.892;2023-02-18T07:11:47;10.90;99.90
5200;DHT22;2619;47.868;11.892;2023-02-18T07:14:13;11.00;99.90
5200;DHT22;2619;47.868;11.892;2023-02-18T07:16:38;11.00;99.90
5200;DHT22;2619;47.868;11.892;2023-02-18T07:19:04;11.00;99.90
5200;DHT22;2619;47.868;11.892;2023-02-18T07:21:30;11.10;99.90
5200;DHT22;2619;47.868;11.892;2023-02-18T07:23:55;11.10;99.90
5200;DHT22;2619;47.868;11.892;2023-02-18T07:26:21;11.20;99.90
5200;DHT22;2619;47.868;11.892;2023-02-18T07:28:46;11.30;99.90
5200;DHT22;2619;47.868;11.892;2023-02-18T07:31:12;11.40;99.90
5200;DHT22;2619;47.868;11.892;2023-02-18T07:33:37;11.50;99.90
5200;DHT22;2619;47.868;11.892;2023-02-18T07:36:03;11.50;99.90
5200;DHT22;2619;47.868;11.892;2023-02-18T07:38:29;11.60;99.90
5200;DHT22;2619;47.868;11.892;2023-02-18T07:40:56;11.70;99.90
5200;DHT22;2619;47.868;11.892;2023-02-18T07:43:22;11.70;99.90
5200;DHT22;2619;47.868;11.892;2023-02-18T07:45:47;11.70;99.90
5200;DHT22;2619;47.868;11.892;2023-02-18T07:48:13;11.80;99.90
5200;DHT22;2619;47.868;11.892;2023-02-18T07:50:40;11.80;99.90
5200;DHT22;2619;47.868;11.892;2023-02-18T07:53:07;11.90;99.90
5200;DHT22;2619;47.868;11.892;2023-02-18T07:55:35;11.90;99.90
5200;DHT22;2619;47.868;11.892;2023-02-18T07:58:29;12.00;99.90
5200;DHT22;2619;47.868;11.892;2023-02-18T08:00:55;11.90;99.90
5200;DHT22;2619;47.868;11.892;2023-02-18T08:03:25;11.80;99.90
5200;DHT22;2619;47.868;11.892;2023-02-18T08:05:51;11.90;99.90
5200;DHT22;2619;47.868;11.892;2023-02-18T08:08:19;12.00;99.90
5200;DHT22;2619;47.868;11.892;2023-02-18T08:10:46;12.10;99.90
5200;DHT22;2619;47.868;11.892;2023-02-18T08:13:12;12.40;99.90
5200;DHT22;2619;47.868;11.892;2023-02-18T08:15:38;12.80;99.90
5200;DHT22;2619;47.868;11.892;2023-02-18T08:18:05;13.20;99.90
5200;DHT22;2619;47.868;11.892;2023-02-18T08:20:34;13.40;99.90
5200;DHT22;2619;47.868;11.892;2023-02-18T08:23:00;13.50;99.90
5200;DHT22;2619;47.868;11.892;2023-02-18T08:25:25;13.60;99.90
5200;DHT22;2619;47.868;11.892;2023-02-18T08:27:52;13.80;99.90
5200;DHT22;2619;47.868;11.892;2023-02-18T08:30:17;13.90;99.90
5200;DHT22;2619;47.868;11.892;2023-02-18T08:32:43;13.80;99.90
5200;DHT22;2619;47.868;11.892;2023-02-18T08:35:10;14.00;99.90
5200;DHT22;2619;47.868;11.892;2023-02-18T08:37:35;14.20;99.90
5200;DHT22;2619;47.868;11.892;2023-02-18T08:40:04;14.20;99.90
5200;DHT22;2619;47.868;11.892;2023-02-18T08:42:30;14.40;99.90
5200;DHT22;2619;47.868;11.892;2023-02-18T08:44:55;14.60;99.90
5200;DHT22;2619;47.868;11.892;2023-02-18T08:47:21;14.80;99.90
5200;DHT22;2619;47.868;11.892;2023-02-18T08:49:47;14.80;99.90
5200;DHT22;2619;47.868;11.892;2023-02-18T08:52:12;14.70;99.90
5200;DHT22;2619;47.868;11.892;2023-02-18T08:54:38;14.70;99.90
5200;DHT22;2619;47.868;11.892;2023-02-18T08:57:03;14.60;99.90
5200;DHT22;2619;47.868;11.892;2023-02-18T08:59:29;14.60;99.90
5200;DHT22;2619;47.868;11.892;2023-02-18T09:01:54;14.80;99.90
5200;DHT22;2619;47.868;11.892;2023-02-18T09:04:20;14.90;99.90
5200;DHT22;2619;47.868;11.892;2023-02-18T09:06:47;14.60;99.90
5200;DHT22;2619;47.868;11.892;2023-02-18T09:09:14;14.20;99.90
5200;DHT22;2619;47.868;11.892;2023-02-18T09:11:40;14.30;99.90
5200;DHT22;2619;47.868;11.892;2023-02-18T09:14:06;13.90;99.90
5200;DHT22;2619;47.868;11.892;2023-02-18T09:16:31;13.90;99.90
5200;DHT22;2619;47.868;11.892;2023-02-18T09:18:57;13.90;99.90
5200;DHT22;2619;47.868;11.892;2023-02-18T09:21:23;13.70;99.90
5200;DHT22;2619;47.868;11.892;2023-02-18T09:23:50;13.70;99.90
5200;DHT22;2619;47.868;11.892;2023-02-18T09:26:18;13.90;99.90
5200;DHT22;2619;47.868;11.892;2023-02-18T09:28:45;14.00;99.90
5200;DHT22;2619;47.868;11.892;2023-02-18T09:31:16;14.00;99.90
5200;DHT22;2619;47.868;11.892;2023-02-18T09:33:45;14.00;99.90
5200;DHT22;2619;47.868;11.892;2023-02-18T09:36:11;13.90;99.90
5200;DHT22;2619;47.868;11.892;2023-02-18T09:38:36;14.10;99.90
5200;DHT22;2619;47.868;11.892;2023-02-18T09:41:06;14.40;99.90
5200;DHT22;2619;47.868;11.892;2023-02-18T09:43:40;14.50;99.90
5200;DHT22;2619;47.868;11.892;2023-02-18T09:46:18;14.60;99.90
5200;DHT22;2619;47.868;11.892;2023-02-18T09:48:46;14.70;99.90
5200;DHT22;2619;47.868;11.892;2023-02-18T09:51:14;15.00;99.90
5200;DHT22;2619;47.868;11.892;2023-02-18T09:53:41;14.90;99.90
5200;DHT22;2619;47.868;11.892;2023-02-18T09:56:16;15.00;99.90
5200;DHT22;2619;47.868;11.892;2023-02-18T09:58:43;15.00;99.90
5200;DHT22;2619;47.868;11.892;2023-02-18T10:01:17;15.10;99.90
5200;DHT22;2619;47.868;11.892;2023-02-18T10:03:44;15.20;99.90
5200;DHT22;2619;47.868;11.892;2023-02-18T10:08:50;15.30;99.90
5200;DHT22;2619;47.868;11.892;2023-02-18T10:11:40;15.40;99.90
5200;DHT22;2619;47.868;11.892;2023-02-18T10:14:10;15.20;99.90
5200;DHT22;2619;47.868;11.892;2023-02-18T10:16:37;15.00;99.90
5200;DHT22;2619;47.868;11.892;2023-02-18T10:19:25;15.10;99.90
5200;DHT22;2619;47.868;11.892;2023-02-18T10:21:52;15.20;99.90
5200;DHT22;2619;47.868;11.892;2023-02-18T10:26:59;15.50;99.90
5200;DHT22;2619;47.868;11.892;2023-02-18T10:29:26;15.60;99.90
5200;DHT22;2619;47.868;11.892;2023-02-18T10:34:48;15.90;99.90
5200;DHT22;2619;47.868;11.892;2023-02-18T10:39:52;16.40;99.90
5200;DHT22;2619;47.868;11.892;2023-02-18T10:50:40;16.50;99.90
5200;DHT22;2619;47.868;11.892;2023-02-18T10:53:32;16.50;99.90
5200;DHT22;2619;47.868;11.892;2023-02-18T10:55:59;16.60;99.90
5200;DHT22;2619;47.868;11.892;2023-02-18T10:58:26;16.40;99.90
5200;DHT22;2619;47.868;11.892;2023-02-18T11:00:52;16.20;99.90
5200;DHT22;2619;47.868;11.892;2023-02-18T11:03:20;16.30;99.90
5200;DHT22;2619;47.868;11.892;2023-02-18T11:05:49;16.40;99.90
5200;DHT22;2619;47.868;11.892;2023-02-18T11:08:27;16.30;99.90
5200;DHT22;2619;47.868;11.892;2023-02-18T11:10:54;16.50;99.90
5200;DHT22;2619;47.868;11.892;2023-02-18T11:13:29;16.50;99.90
5200;DHT22;2619;47.868;11.892;2023-02-18T11:16:00;16.30;99.90
5200;DHT22;2619;47.868;11.892;2023-02-18T11:18:46;16.00;99.90
5200;DHT22;2619;47.868;11.892;2023-02-18T11:23:48;16.00;99.90
5200;DHT22;2619;47.868;11.892;2023-02-18T11:26:16;15.80;99.90
5200;DHT22;2619;47.868;11.892;2023-02-18T11:28:54;15.60;99.90
5200;DHT22;2619;47.868;11.892;2023-02-18T11:31:28;15.60;99.90
5200;DHT22;2619;47.868;11.892;2023-02-18T11:33:59;15.40;99.90
5200;DHT22;2619;47.868;11.892;2023-02-18T11:36:34;15.50;99.90
5200;DHT22;2619;47.868;11.892;2023-02-18T11:39:26;15.50;99.90
5200;DHT22;2619;47.868;11.892;2023-02-18T11:41:53;15.50;99.90
5200;DHT22;2619;47.868;11.892;2023-02-18T11:44:35;15.60;99.90
5200;DHT22;2619;47.868;11.892;2023-02-18T11:47:22;15.70;99.90
5200;DHT22;2619;47.868;11.892;2023-02-18T11:55:07;15.90;99.90
5200;DHT22;2619;47.868;11.892;2023-02-18T11:57:40;16.10;99.90
5200;DHT22;2619;47.868;11.892;2023-02-18T12:00:30;16.20;99.90
5200;DHT22;2619;47.868;11.892;2023-02-18T12:03:02;16.30;99.90
5200;DHT22;2619;47.868;11.892;2023-02-18T12:05:31;16.60;99.90
5200;DHT22;2619;47.868;11.892;2023-02-18T12:08:12;16.80;99.90
5200;DHT22;2619;47.868;11.892;2023-02-18T12:10:49;16.80;99.90
5200;DHT22;2619;47.868;11.892;2023-02-18T12:13:37;16.80;99.90
5200;DHT22;2619;47.868;11.892;2023-02-18T12:16:32;17.00;99.90
5200;DHT22;2619;47.868;11.892;2023-02-18T12:22:00;17.20;99.90
5200;DHT22;2619;47.868;11.892;2023-02-18T12:28:12;17.60;99.80
5200;DHT22;2619;47.868;11.892;2023-02-18T12:36:44;17.90;98.30
5200;DHT22;2619;47.868;11.892;2023-02-18T12:39:39;17.90;98.30
5200;DHT22;2619;47.868;11.892;2023-02-18T12:55:26;18.40;97.20
5200;DHT22;2619;47.868;11.892;2023-02-18T12:58:25;18.10;96.60
5200;DHT22;2619;47.868;11.892;2023-02-18T13:01:30;18.00;96.20
5200;DHT22;2619;47.868;11.892;2023-02-18T13:04:18;18.10;97.30
5200;DHT22;2619;47.868;11.892;2023-02-18T13:09:48;18.10;95.60
5200;DHT22;2619;47.868;11.892;2023-02-18T13:14:52;17.80;95.00
5200;DHT22;2619;47.868;11.892;2023-02-18T13:17:23;17.80;95.50
5200;DHT22;2619;47.868;11.892;2023-02-18T13:20:00;17.80;96.00
5200;DHT22;2619;47.868;11.892;2023-02-18T13:22:28;17.70;94.70
5200;DHT22;2619;47.868;11.892;2023-02-18T13:24:56;17.70;95.30
5200;DHT22;2619;47.868;11.892;2023-02-18T13:30:32;17.80;95.30
5200;DHT22;2619;47.868;11.892;2023-02-18T13:33:11;17.70;95.00
5200;DHT22;2619;47.868;11.892;2023-02-18T13:36:04;17.50;94.30
5200;DHT22;2619;47.868;11.892;2023-02-18T13:38:56;17.30;94.70
5200;DHT22;2619;47.868;11.892;2023-02-18T13:41:25;17.20;94.30
5200;DHT22;2619;47.868;11.892;2023-02-18T13:43:51;17.10;93.90
5200;DHT22;2619;47.868;11.892;2023-02-18T13:46:18;17.00;94.20
5200;DHT22;2619;47.868;11.892;2023-02-18T13:59:50;16.90;94.00
5200;DHT22;2619;47.868;11.892;2023-02-18T14:09:58;16.80;93.00
5200;DHT22;2619;47.868;11.892;2023-02-18T14:14:58;16.80;93.60
5200;DHT22;2619;47.868;11.892;2023-02-18T14:20:21;16.90;93.00
5200;DHT22;2619;47.868;11.892;2023-02-18T14:22:48;16.90;93.10
5200;DHT22;2619;47.868;11.892;2023-02-18T14:27:46;16.90;92.80
5200;DHT22;2619;47.868;11.892;2023-02-18T14:32:45;16.80;93.60
5200;DHT22;2619;47.868;11.892;2023-02-18T14:40:40;16.60;93.90
5200;DHT22;2619;47.868;11.892;2023-02-18T14:51:55;16.10;96.40
5200;DHT22;2619;47.868;11.892;2023-02-18T14:54:24;15.90;96.40
5200;DHT22;2619;47.868;11.892;2023-02-18T14:56:55;15.80;96.50
5200;DHT22;2619;47.868;11.892;2023-02-18T14:59:24;15.60;96.90
5200;DHT22;2619;47.868;11.892;2023-02-18T15:01:53;15.50;97.70
5200;DHT22;2619;47.868;11.892;2023-02-18T15:04:19;15.50;97.80
5200;DHT22;2619;47.868;11.892;2023-02-18T15:06:45;15.40;97.70
5200;DHT22;2619;47.868;11.892;2023-02-18T15:09:18;15.40;97.70
5200;DHT22;2619;47.868;11.892;2023-02-18T15:11:51;15.20;98.00
5200;DHT22;2619;47.868;11.892;2023-02-18T15:14:22;15.10;98.50
5200;DHT22;2619;47.868;11.892;2023-02-18T15:16:50;15.00;98.50
5200;DHT22;2619;47.868;11.892;2023-02-18T15:19:19;15.00;98.50
5200;DHT22;2619;47.868;11.892;2023-02-18T15:21:47;14.90;98.60
5200;DHT22;2619;47.868;11.892;2023-02-18T15:26:47;14.90;98.90
5200;DHT22;2619;47.868;11.892;2023-02-18T15:29:28;14.90;99.10
5200;DHT22;2619;47.868;11.892;2023-02-18T15:31:55;14.90;99.20
5200;DHT22;2619;47.868;11.892;2023-02-18T15:36:55;14.70;99.70
5200;DHT22;2619;47.868;11.892;2023-02-18T15:39:21;14.50;99.60
5200;DHT22;2619;47.868;11.892;2023-02-18T15:41:54;14.50;99.90
5200;DHT22;2619;47.868;11.892;2023-02-18T15:44:26;14.40;99.80
5200;DHT22;2619;47.868;11.892;2023-02-18T15:46:52;14.40;99.90
5200;DHT22;2619;47.868;11.892;2023-02-18T15:49:23;14.30;99.80
5200;DHT22;2619;47.868;11.892;2023-02-18T15:51:49;14.30;99.90
5200;DHT22;2619;47.868;11.892;2023-02-18T15:54:21;14.20;99.90
5200;DHT22;2619;47.868;11.892;2023-02-18T15:56:52;14.10;99.90
5200;DHT22;2619;47.868;11.892;2023-02-18T15:59:35;14.10;99.90
5200;DHT22;2619;47.868;11.892;2023-02-18T16:02:20;14.00;99.90
5200;DHT22;2619;47.868;11.892;2023-02-18T16:04:59;13.90;99.90
5200;DHT22;2619;47.868;11.892;2023-02-18T16:07:29;13.80;99.90
5200;DHT22;2619;47.868;11.892;2023-02-18T16:12:39;13.70;99.90
5200;DHT22;2619;47.868;11.892;2023-02-18T16:15:05;13.60;99.90
5200;DHT22;2619;47.868;11.892;2023-02-18T16:17:31;13.50;99.90
5200;DHT22;2619;47.868;11.892;2023-02-18T16:25:23;13.40;99.90
5200;DHT22;2619;47.868;11.892;2023-02-18T16:30:25;13.10;99.90
5200;DHT22;2619;47.868;11.892;2023-02-18T16:32:52;13.00;99.90
5200;DHT22;2619;47.868;11.892;2023-02-18T16:35:19;13.00;99.90
5200;DHT22;2619;47.868;11.892;2023-02-18T16:37:46;12.90;99.90
5200;DHT22;2619;47.868;11.892;2023-02-18T16:42:49;12.90;99.90
5200;DHT22;2619;47.868;11.892;2023-02-18T16:45:16;12.80;99.90
5200;DHT22;2619;47.868;11.892;2023-02-18T16:47:43;12.80;99.90
5200;DHT22;2619;47.868;11.892;2023-02-18T16:50:18;12.80;99.90
5200;DHT22;2619;47.868;11.892;2023-02-18T16:52:44;12.80;99.90
5200;DHT22;2619;47.868;11.892;2023-02-18T16:57:42;12.60;99.90
5200;DHT22;2619;47.868;11.892;2023-02-18T17:00:08;12.60;99.90
5200;DHT22;2619;47.868;11.892;2023-02-18T17:02:35;12.60;99.90
5200;DHT22;2619;47.868;11.892;2023-02-18T17:05:00;12.60;99.90
5200;DHT22;2619;47.868;11.892;2023-02-18T17:07:26;12.60;99.90
5200;DHT22;2619;47.868;11.892;2023-02-18T17:09:52;12.50;99.90
5200;DHT22;2619;47.868;11.892;2023-02-18T17:12:17;12.50;99.90
5200;DHT22;2619;47.868;11.892;2023-02-18T17:14:43;12.50;99.90
5200;DHT22;2619;47.868;11.892;2023-02-18T17:17:11;12.50;99.90
5200;DHT22;2619;47.868;11.892;2023-02-18T17:19:42;12.40;99.90
5200;DHT22;2619;47.868;11.892;2023-02-18T17:22:10;12.40;99.90
5200;DHT22;2619;47.868;11.892;2023-02-18T17:24:37;12.40;99.90
5200;DHT22;2619;47.868;11.892;2023-02-18T17:27:02;12.40;99.90
5200;DHT22;2619;47.868;11.892;2023-02-18T17:29:28;12.30;99.90
5200;DHT22;2619;47.868;11.892;2023-02-18T17:31:54;12.30;99.90
5200;DHT22;2619;47.868;11.892;2023-02-18T17:34:25;12.20;99.90
5200;DHT22;2619;47.868;11.892;2023-02-18T17:36:51;12.20;99.90
5200;DHT22;2619;47.868;11.892;2023-02-18T17:39:20;12.10;99.90
5200;DHT22;2619;47.868;11.892;2023-02-18T17:41:45;12.20;99.90
5200;DHT22;2619;47.868;11.892;2023-02-18T17:44:15;12.20;99.90
5200;DHT22;2619;47.868;11.892;2023-02-18T17:46:41;12.20;99.90
5200;DHT22;2619;47.868;11.892;2023-02-18T17:49:07;12.10;99.90
5200;DHT22;2619;47.868;11.892;2023-02-18T17:51:32;12.00;99.90
5200;DHT22;2619;47.868;11.892;2023-02-18T17:54:01;12.10;99.90
5200;DHT22;2619;47.868;11.892;2023-02-18T17:56:27;12.10;99.90
5200;DHT22;2619;47.868;11.892;2023-02-18T17:58:52;12.00;99.90
5200;DHT22;2619;47.868;11.892;2023-02-18T18:01:18;12.00;99.90
5200;DHT22;2619;47.868;11.892;2023-02-18T18:03:46;11.90;99.90
5200;DHT22;2619;47.868;11.892;2023-02-18T18:06:16;11.90;99.90
5200;DHT22;2619;47.868;11.892;2023-02-18T18:08:42;11.90;99.90
5200;DHT22;2619;47.868;11.892;2023-02-18T18:11:12;11.90;99.90
5200;DHT22;2619;47.868;11.892;2023-02-18T18:13:38;11.80;99.90
5200;DHT22;2619;47.868;11.892;2023-02-18T18:16:04;11.80;99.90
5200;DHT22;2619;47.868;11.892;2023-02-18T18:18:29;11.80;99.90
5200;DHT22;2619;47.868;11.892;2023-02-18T18:20:57;11.80;99.90
5200;DHT22;2619;47.868;11.892;2023-02-18T18:23:24;11.80;99.90
5200;DHT22;2619;47.868;11.892;2023-02-18T18:25:54;11.80;99.90
5200;DHT22;2619;47.868;11.892;2023-02-18T18:28:21;11.70;99.90
5200;DHT22;2619;47.868;11.892;2023-02-18T18:30:48;11.70;99.90
5200;DHT22;2619;47.868;11.892;2023-02-18T18:33:21;11.70;99.90
5200;DHT22;2619;47.868;11.892;2023-02-18T18:35:49;11.70;99.90
5200;DHT22;2619;47.868;11.892;2023-02-18T18:38:16;11.60;99.90
5200;DHT22;2619;47.868;11.892;2023-02-18T18:40:43;11.70;99.90